Time;durP1;ratioP1;P1;durP2;ratioP2;P2;SDS_P1;SDS_P2;PMS_P1;PMS_P2;Temp;Humidity;BMP_temperature;BMP_pressure;BME280_temperature;BME280_humidity;BME280_pressure;Samples;Min_cycle;Max_cycle;Signal;HPM_P1;HPM_P2
2023/02/16 00:00:47;;;;;;;1144.95;97.85;;;3.10;99.90;;;1.49;100.00;101864.69;4936952;28;20538;-82
2023/02/16 00:03:20;;;;;;;1173.15;101.28;;;4.20;99.90;;;1.48;100.00;101862.06;4938093;28;20140;-80
2023/02/16 00:05:47;;;;;;;1092.90;98.55;;;3.10;99.90;;;1.48;100.00;101865.53;4937337;28;20041;-80
2023/02/16 00:08:13;;;;;;;1043.82;93.55;;;3.10;99.90;;;1.46;100.00;101859.44;4963144;28;20038;-81
2023/02/16 00:10:39;;;;;;;1015.75;93.63;;;3.10;99.90;;;1.43;100.00;101875.00;4932361;28;20052;-82
2023/02/16 00:13:46;;;;;;;1101.10;98.00;;;3.00;99.90;;;1.38;100.00;101868.88;4958136;28;20046;-80
2023/02/16 00:16:19;;;;;;;984.30;94.43;;;3.10;99.90;;;1.44;100.00;101864.63;4923995;28;20690;-82
2023/02/16 00:18:46;;;;;;;1123.93;99.28;;;3.00;99.90;;;1.42;100.00;101858.53;4983305;28;20038;-82
2023/02/16 00:21:14;;;;;;;952.08;89.93;;;3.00;99.90;;;1.43;100.00;101875.88;4921281;28;20046;-80
2023/02/16 00:23:40;;;;;;;1064.18;97.30;;;3.00;99.90;;;1.43;100.00;101875.00;4953077;28;20030;-80
2023/02/16 00:26:21;;;;;;;1042.07;97.60;;;3.00;99.90;;;1.41;100.00;101864.59;4927429;28;20125;-82
2023/02/16 00:29:00;;;;;;;1084.78;95.57;;;3.00;99.90;;;1.42;100.00;101868.06;4925157;28;20049;-82
2023/02/16 00:31:31;;;;;;;975.60;93.05;;;3.00;99.90;;;1.38;100.00;101856.81;4946799;28;20043;-81
2023/02/16 00:34:03;;;;;;;1083.85;100.50;;;3.00;99.90;;;1.38;100.00;101854.22;4932312;28;20041;-82
2023/02/16 00:36:29;;;;;;;944.55;91.28;;;3.00;99.90;;;1.36;100.00;101849.84;4940271;28;20043;-82
2023/02/16 00:38:55;;;;;;;1096.38;99.85;;;3.00;99.90;;;1.39;100.00;101848.16;4939352;28;20085;-82
2023/02/16 00:44:19;;;;;;;;;;;3.10;99.90;;;1.37;100.00;101852.47;4961560;28;20077;-81
2023/02/16 00:46:53;;;;;;;1075.50;96.40;;;;;;;1.33;100.00;101848.09;4928161;28;20349;-82
2023/02/16 00:49:21;;;;;;;1019.80;96.82;;;2.90;99.90;;;1.24;100.00;101845.41;4949543;28;20031;-81
2023/02/16 00:51:48;;;;;;;978.25;96.70;;;2.90;99.90;;;1.21;100.00;101845.41;4964195;28;20052;-81
2023/02/16 00:54:20;;;;;;;886.90;90.70;;;2.90;99.90;;;1.23;100.00;101847.16;4925800;28;20022;-80
2023/02/16 00:56:46;;;;;;;1044.93;100.97;;;2.90;99.90;;;1.27;100.00;101842.84;4954112;28;20054;-82
2023/02/16 00:59:21;;;;;;;1081.05;100.18;;;2.90;99.90;;;1.30;100.00;101847.22;4930419;28;20046;-79
2023/02/16 01:01:48;;;;;;;941.33;95.53;;;2.90;99.90;;;1.22;100.00;101840.19;4967582;28;20515;-82
2023/02/16 01:04:29;;;;;;;961.92;98.63;;;2.80;99.90;;;1.18;100.00;101828.06;4966396;28;20104;-80
2023/02/16 01:12:27;;;;;;;1191.88;101.95;;;2.80;99.90;;;1.19;100.00;101835.00;4963713;28;20041;-81
2023/02/16 01:14:54;;;;;;;1119.53;99.28;;;2.80;99.90;;;1.16;100.00;101828.91;4920332;28;20502;-81
2023/02/16 01:17:21;;;;;;;1052.10;97.38;;;2.80;99.90;;;1.11;100.00;101820.22;4903854;28;20589;-80
2023/02/16 01:19:47;;;;;;;1121.18;104.18;;;2.70;99.90;;;1.06;100.00;101820.16;4961732;28;20042;-80
2023/02/16 01:22:13;;;;;;;1061.32;100.15;;;2.70;99.90;;;1.08;100.00;101813.28;4951509;28;20558;-79
2023/02/16 01:24:42;;;;;;;1217.03;107.95;;;2.70;99.90;;;1.08;100.00;101809.78;4930979;28;20026;-80
2023/02/16 01:27:12;;;;;;;944.22;94.50;;;2.70;99.90;;;1.08;100.00;101802.91;4958312;28;20101;-82
2023/02/16 01:29:38;;;;;;;1038.68;98.13;;;2.70;99.90;;;1.12;100.00;101803.78;4941626;28;20037;-80
2023/02/16 01:32:04;;;;;;;1076.80;96.55;;;2.70;99.90;;;1.12;100.00;101803.78;4954296;28;20526;-80
2023/02/16 01:34:37;;;;;;;1176.53;104.80;;;2.70;99.90;;;1.13;100.00;101802.94;4938171;28;20438;-80
2023/02/16 01:37:03;;;;;;;1017.30;93.68;;;2.70;99.90;;;1.14;100.00;101807.25;4947088;28;20042;-81
2023/02/16 01:39:29;;;;;;;1122.35;100.43;;;2.70;99.90;;;1.12;100.00;101803.78;4901647;28;20526;-83
2023/02/16 01:42:07;;;;;;;1136.00;99.65;;;2.70;99.90;;;1.07;100.00;101793.34;4935084;28;20073;-82
2023/02/16 01:45:17;;;;;;;1095.95;98.60;;;2.70;99.90;;;1.02;100.00;101806.28;4921508;28;20096;-80
2023/02/16 01:47:49;;;;;;;1030.13;89.85;;;2.60;99.90;;;0.96;100.00;101810.53;4920326;28;20128;-80
2023/02/16 01:50:33;;;;;;;1165.10;98.90;;;2.60;99.90;;;0.91;100.00;101797.53;4923318;28;20114;-82
2023/02/16 01:53:15;;;;;;;1161.63;92.82;;;2.60;99.90;;;0.82;100.00;101787.03;4966645;28;20023;-82
2023/02/16 01:55:46;;;;;;;864.60;85.95;;;2.50;99.90;;;0.85;100.00;101787.09;4960415;28;20027;-80
2023/02/16 01:58:36;;;;;;;1132.55;94.03;;;2.50;99.90;;;0.77;100.00;101789.59;4923646;28;20038;-81
2023/02/16 02:01:03;;;;;;;914.55;80.50;;;2.40;99.90;;;0.79;100.00;101792.22;4954395;28;20095;-80
2023/02/16 02:06:34;;;;;;;871.80;80.78;;;2.40;99.90;;;0.65;100.00;101775.63;4945626;28;20056;-81
2023/02/16 02:09:22;;;;;;;653.63;73.28;;;2.30;99.90;;;0.69;100.00;101777.41;4964308;28;20034;-82
2023/02/16 02:12:38;;;;;;;685.15;74.03;;;2.30;99.90;;;0.65;100.00;101770.44;4929829;28;20042;-82
2023/02/16 02:15:07;;;;;;;790.38;81.35;;;2.30;99.90;;;0.60;100.00;101766.09;4955005;28;20104;-81
2023/02/16 02:17:33;;;;;;;859.05;76.82;;;2.20;99.90;;;0.58;100.00;101757.44;4940950;28;20497;-79
2023/02/16 02:20:14;;;;;;;555.30;66.25;;;2.20;99.90;;;0.60;100.00;101760.91;4920355;28;20076;-81
2023/02/16 02:23:32;;;;;;;814.08;77.60;;;2.20;99.90;;;0.53;100.00;101763.41;4944745;28;20042;-80
2023/02/16 02:26:35;;;;;;;915.63;79.10;;;2.20;99.90;;;0.56;100.00;101763.44;4935201;28;20401;-82
2023/02/16 02:29:41;;;;;;;742.78;74.97;;;2.20;99.90;;;0.52;100.00;101757.38;4908237;28;20819;-81
2023/02/16 02:32:37;;;;;;;888.92;79.50;;;2.20;99.90;;;0.44;100.00;101771.94;4968338;28;20052;-81
2023/02/16 02:35:48;;;;;;;875.08;79.63;;;2.10;99.90;;;0.44;100.00;101768.50;4944564;28;20085;-81
2023/02/16 02:39:11;;;;;;;850.05;76.80;;;2.10;99.90;;;0.35;100.00;101774.44;4951225;28;20045;-79
2023/02/16 02:42:16;;;;;;;936.08;78.25;;;2.10;99.90;;;0.35;100.00;101769.25;4964350;28;20117;-81
2023/02/16 02:44:46;;;;;;;1034.45;82.80;;;2.00;99.90;;;0.32;100.00;101766.59;4976452;28;20041;-80
2023/02/16 02:47:12;;;;;;;893.25;75.97;;;2.00;99.90;;;0.34;100.00;101765.78;4938118;28;20035;-80
2023/02/16 02:49:38;;;;;;;1087.30;83.05;;;2.00;99.90;;;0.30;100.00;101763.13;4913761;28;20070;-81
2023/02/16 02:52:12;;;;;;;1045.75;84.05;;;2.00;99.90;;;0.29;100.00;101769.19;4953654;28;20956;-80
2023/02/16 03:00:50;;;;;;;951.15;79.30;;;1.90;99.90;;;0.18;100.00;101741.41;4952849;28;20033;-80
2023/02/16 03:03:42;;;;;;;1012.93;84.07;;;1.80;99.90;;;0.15;100.00;101732.72;4929416;28;20042;-82
2023/02/16 03:06:37;;;;;;;934.78;79.43;;;1.80;99.90;;;0.10;100.00;101740.44;4933991;28;20580;-82
2023/02/16 03:09:13;;;;;;;1108.63;84.63;;;1.80;99.90;;;0.10;100.00;101732.66;4968009;28;20073;-79
2023/02/16 03:14:42;;;;;;;1063.90;81.07;;;1.80;99.90;;;0.04;100.00;101730.00;4972321;28;20104;-81
2023/02/16 03:31:39;;;;;;;1129.35;81.70;;;1.70;99.90;;;0.08;100.00;101739.53;4931786;28;20636;-82
2023/02/16 03:34:05;;;;;;;1115.93;85.70;;;1.70;99.90;;;0.02;100.00;101736.88;4930786;28;20653;-80
2023/02/16 03:36:37;;;;;;;1093.63;79.88;;;1.70;99.90;;;-0.02;100.00;101733.41;4922480;28;20046;-81
2023/02/16 03:39:07;;;;;;;1023.15;80.22;;;1.70;99.90;;;-0.01;100.00;101742.88;4939442;28;20041;-80
2023/02/16 03:41:40;;;;;;;1230.45;91.78;;;1.60;99.90;;;-0.04;100.00;101742.00;4965309;28;20026;-81
2023/02/16 03:44:11;;;;;;;1154.85;89.68;;;1.60;99.90;;;-0.04;100.00;101744.59;4950962;28;20093;-81
2023/02/16 03:46:37;;;;;;;1036.20;81.35;;;1.60;99.90;;;-0.05;100.00;101724.72;4936233;28;20050;-82
2023/02/16 03:49:03;;;;;;;930.42;80.63;;;1.60;99.90;;;-0.04;100.00;101722.16;4966649;28;20038;-80
2023/02/16 03:51:29;;;;;;;932.28;77.32;;;;;;;-0.04;100.00;101718.69;4920967;28;20051;-80
2023/02/16 03:53:55;;;;;;;1102.47;79.35;;;1.60;99.90;;;-0.15;100.00;101710.78;4978325;28;20091;-81
2023/02/16 03:56:29;;;;;;;1089.28;82.88;;;1.50;99.90;;;-0.25;100.00;101703.75;4913464;28;20188;-80
2023/02/16 03:58:55;;;;;;;970.22;77.55;;;1.50;99.90;;;-0.31;100.00;101704.50;4933584;28;20049;-80
2023/02/16 04:01:20;;;;;;;1092.53;81.13;;;1.40;99.90;;;-0.35;100.00;101694.97;4932309;28;20035;-81
2023/02/16 04:03:46;;;;;;;1000.70;81.18;;;1.40;99.90;;;-0.38;100.00;101697.53;4953215;28;20086;-81
2023/02/16 04:06:21;;;;;;;858.63;68.72;;;1.40;99.90;;;-0.38;100.00;101701.84;4938734;28;20050;-80
2023/02/16 04:08:47;;;;;;;835.40;71.53;;;1.30;99.90;;;-0.35;100.00;101719.97;4916961;28;20030;-82
2023/02/16 04:14:00;;;;;;;797.38;65.30;;;1.30;99.90;;;-0.44;100.00;101706.06;4932338;28;20041;-82
2023/02/16 04:16:26;;;;;;;732.03;65.32;;;1.30;99.90;;;-0.42;100.00;101726.78;4917403;28;20043;-82
2023/02/16 04:18:51;;;;;;;853.53;69.05;;;1.30;99.90;;;-0.43;100.00;101727.66;4942200;28;20035;-81
2023/02/16 04:21:17;;;;;;;819.75;69.20;;;1.20;99.90;;;-0.50;100.00;101718.03;4950939;28;20049;-80
2023/02/16 04:23:43;;;;;;;852.63;70.38;;;1.20;99.90;;;-0.54;100.00;101726.59;4878405;28;21373;-80
2023/02/16 04:26:09;;;;;;;794.83;66.65;;;1.20;99.90;;;-0.52;100.00;101727.50;4961366;28;20034;-80
2023/02/16 04:28:35;;;;;;;748.63;66.15;;;1.10;99.90;;;-0.60;100.00;101718.75;4930858;28;20125;-81
2023/02/16 04:31:05;;;;;;;810.72;66.72;;;1.10;99.90;;;-0.64;100.00;101721.28;4943951;28;20527;-80
2023/02/16 04:33:31;;;;;;;937.42;72.93;;;1.10;99.90;;;-0.63;100.00;101719.56;4949983;28;20476;-79
2023/02/16 04:35:57;;;;;;;517.55;60.08;;;1.10;99.90;;;-0.62;100.00;101729.94;4943503;28;20041;-81
2023/02/16 04:38:24;;;;;;;644.10;63.20;;;1.10;99.90;;;-0.64;100.00;101726.47;4958659;28;20852;-80
2023/02/16 04:40:50;;;;;;;497.15;60.78;;;1.00;99.90;;;-0.65;100.00;101721.25;4933017;28;20045;-82
2023/02/16 04:43:22;;;;;;;441.75;59.00;;;1.00;99.90;;;-0.63;100.00;101728.22;4962987;28;20156;-82
2023/02/16 04:45:47;;;;;;;405.98;54.45;;;1.00;99.90;;;-0.64;100.00;101728.19;4944130;28;20034;-80
2023/02/16 04:48:13;;;;;;;629.45;63.88;;;1.00;99.90;;;-0.69;100.00;101722.94;4935290;28;20053;-79
2023/02/16 04:50:39;;;;;;;584.58;63.08;;;0.90;99.90;;;-0.74;100.00;101716.81;4940920;28;20537;-82
2023/02/16 04:53:05;;;;;;;345.08;51.40;;;0.90;99.90;;;-0.80;100.00;101711.53;4920744;28;20128;-81
2023/02/16 04:55:31;;;;;;;301.23;51.83;;;0.90;99.90;;;-0.82;100.00;101713.25;4961780;28;20030;-80
2023/02/16 04:57:57;;;;;;;544.63;59.47;;;0.80;99.90;;;-0.92;100.00;101699.31;4941780;28;20035;-80
2023/02/16 05:00:26;;;;;;;423.50;56.15;;;0.80;99.90;;;-0.98;100.00;101698.34;4920342;28;20391;-79
2023/02/16 05:02:52;;;;;;;308.17;51.00;;;0.70;99.90;;;-1.00;100.00;101702.59;4932768;28;20583;-79
2023/02/16 05:05:18;;;;;;;323.40;51.72;;;0.70;99.90;;;-1.03;100.00;101706.00;4931595;28;22417;-84
2023/02/16 05:07:44;;;;;;;312.42;51.08;;;;;;;-1.05;100.00;101708.56;4925518;28;20038;-80
2023/02/16 05:10:10;;;;;;;562.50;58.47;;;0.60;99.90;;;-1.13;100.00;101701.53;4932819;28;20174;-81
2023/02/16 05:15:23;;;;;;;426.05;53.63;;;0.50;99.90;;;-1.30;100.00;101690.91;4942990;28;20482;-78
2023/02/16 05:17:49;;;;;;;335.50;51.42;;;0.50;99.90;;;-1.33;100.00;101707.22;4918076;28;20034;-83
2023/02/16 05:20:17;;;;;;;438.02;52.90;;;0.40;99.90;;;-1.36;100.00;101703.69;4956896;28;20073;-79
2023/02/16 05:22:44;;;;;;;255.65;50.47;;;0.30;99.90;;;-1.46;100.00;101693.19;4940061;28;20465;-78
2023/02/16 05:25:17;;;;;;;199.80;50.03;;;0.30;99.90;;;-1.42;100.00;101712.22;4911073;28;20062;-81
2023/02/16 05:27:43;;;;;;;496.65;60.53;;;0.30;99.90;;;-1.51;100.00;101697.44;4914870;28;20226;-80
2023/02/16 05:30:10;;;;;;;617.00;64.15;;;0.20;99.90;;;-1.54;100.00;101693.91;4920460;28;20042;-81
2023/02/16 05:32:36;;;;;;;637.83;65.25;;;0.20;99.90;;;-1.56;100.00;101688.69;4935727;28;20039;-82
2023/02/16 05:35:11;;;;;;;536.80;55.85;;;0.20;99.90;;;-1.61;100.00;101695.50;4941929;28;20780;-80
2023/02/16 05:37:36;;;;;;;449.90;56.80;;;0.20;99.90;;;-1.63;100.00;101688.56;4949705;28;20113;-81
2023/02/16 05:40:03;;;;;;;346.33;55.20;;;0.10;99.90;;;-1.63;100.00;101694.59;4948144;28;20510;-82
2023/02/16 05:42:31;;;;;;;327.85;54.50;;;0.10;99.90;;;-1.66;100.00;101689.41;4917974;28;20034;-82
2023/02/16 05:45:01;;;;;;;328.67;54.80;;;0.10;99.90;;;-1.70;100.00;101685.88;4933912;28;20046;-82
2023/02/16 05:47:26;;;;;;;208.57;49.38;;;0.10;99.90;;;-1.73;100.00;101688.41;4896811;28;20056;-82
2023/02/16 05:49:52;;;;;;;197.20;47.47;;;0.00;99.90;;;-1.75;100.00;101681.44;4917327;28;21900;-81
2023/02/16 05:52:18;;;;;;;160.13;45.72;;;0.00;99.90;;;-1.76;100.00;101677.16;4942658;28;20074;-85
2023/02/16 05:54:44;;;;;;;195.00;47.30;;;0.00;99.90;;;-1.78;100.00;101668.50;4947770;28;20117;-81
2023/02/16 05:57:17;;;;;;;200.48;50.20;;;;;;;-1.78;100.00;101671.94;4932084;28;20039;-82
2023/02/16 05:59:43;;;;;;;176.60;45.10;;;-0.10;99.90;;;-1.82;100.00;101669.28;4949748;28;20030;-80
2023/02/16 06:02:09;;;;;;;151.93;44.97;;;-0.10;99.90;;;-1.83;100.00;101671.00;4914205;28;20106;-82
2023/02/16 06:04:35;;;;;;;167.95;47.42;;;0.00;99.90;;;-1.78;100.00;101665.91;4934045;28;20172;-82
2023/02/16 06:07:09;;;;;;;158.85;47.35;;;0.00;99.90;;;-1.73;100.00;101679.78;4930328;28;20051;-81
2023/02/16 06:09:35;;;;;;;164.07;45.03;;;0.00;99.90;;;-1.71;100.00;101678.09;4947170;28;20039;-83
2023/02/16 06:12:00;;;;;;;144.07;45.55;;;0.00;99.90;;;-1.72;100.00;101677.22;4943779;28;20069;-81
2023/02/16 06:14:26;;;;;;;147.30;45.08;;;0.00;99.90;;;-1.72;100.00;101674.66;4897442;28;20034;-82
2023/02/16 06:16:57;;;;;;;163.38;43.92;;;0.00;99.90;;;-1.72;100.00;101666.91;4958670;28;20086;-82
2023/02/16 06:19:23;;;;;;;143.93;45.55;;;0.00;99.90;;;-1.69;100.00;101669.53;4936438;28;20035;-83
2023/02/16 06:21:49;;;;;;;152.40;45.95;;;0.00;99.90;;;-1.69;100.00;101682.44;4917782;28;20042;-85
2023/02/16 06:24:15;;;;;;;165.68;45.47;;;0.00;99.90;;;-1.68;100.00;101680.75;4939785;28;20035;-82
2023/02/16 06:26:41;;;;;;;168.85;46.70;;;;;;;-1.73;100.00;101678.09;4939464;28;20034;-83
2023/02/16 06:29:18;;;;;;;;;;;;;;;;;;;;;
2023/02/16 06:31:44;;;;;;;150.10;43.00;;;0.00;99.90;;;-1.84;100.00;101665.78;4939244;28;20536;-84
2023/02/16 06:34:10;;;;;;;154.10;45.03;;;0.00;99.90;;;-1.86;100.00;101655.44;4931134;28;20050;-81
2023/02/16 06:36:36;;;;;;;160.50;44.75;;;0.00;99.90;;;-1.80;100.00;101663.28;4936404;28;20113;-82
2023/02/16 06:39:11;;;;;;;147.13;42.25;;;0.00;99.90;;;-1.77;100.00;101657.31;4964283;28;20047;-81
2023/02/16 06:41:39;;;;;;;149.52;41.15;;;-0.10;99.90;;;-1.84;100.00;101658.91;4972221;28;20034;-82
2023/02/16 06:44:14;;;;;;;147.95;42.13;;;0.00;99.90;;;-1.79;100.00;101657.31;4925013;28;20069;-80
2023/02/16 06:46:53;;;;;;;130.00;40.78;;;-0.10;99.90;;;-1.77;100.00;101658.22;4954336;28;20046;-82
2023/02/16 06:49:20;;;;;;;133.35;41.40;;;-0.10;99.90;;;-1.81;100.00;101648.66;4954077;28;20042;-81
2023/02/16 06:51:47;;;;;;;152.13;45.78;;;-0.10;99.90;;;-1.77;100.00;101652.16;4943292;28;20570;-82
2023/02/16 06:54:19;;;;;;;149.55;44.78;;;;;;;-1.68;100.00;101667.84;4899258;28;20038;-80
2023/02/16 06:56:45;;;;;;;163.75;45.22;;;0.00;99.90;;;-1.66;100.00;101666.16;4913376;28;20683;-81
2023/02/16 06:59:12;;;;;;;143.05;44.67;;;0.00;99.90;;;-1.63;100.00;101655.88;4923693;28;20045;-83
2023/02/16 07:01:37;;;;;;;158.02;48.42;;;0.10;99.90;;;-1.52;100.00;101656.94;4914709;28;20068;-83
2023/02/16 07:04:03;;;;;;;174.70;51.72;;;0.20;99.90;;;-1.40;100.00;101642.47;4927671;28;20046;-81
2023/02/16 07:06:34;;;;;;;173.60;50.10;;;0.20;99.90;;;-1.25;100.00;101646.22;4938390;28;20526;-81
2023/02/16 07:09:00;;;;;;;176.77;49.30;;;0.30;99.90;;;-1.10;100.00;101661.09;4970325;28;20042;-82
2023/02/16 07:11:26;;;;;;;173.88;48.22;;;0.50;99.90;;;-0.95;100.00;101651.84;4944065;28;20039;-83
2023/02/16 07:13:52;;;;;;;172.27;51.05;;;0.50;99.90;;;-0.64;100.00;101650.59;4939850;28;20502;-81
2023/02/16 07:16:18;;;;;;;177.25;54.45;;;0.70;99.90;;;-0.16;100.00;101659.84;4902547;28;20043;-82
2023/02/16 07:18:45;;;;;;;196.13;57.20;;;0.90;99.90;;;0.22;100.00;101663.72;4934209;28;20053;-81
2023/02/16 07:21:13;;;;;;;185.30;55.60;;;1.20;99.90;;;0.93;100.00;101663.56;4951021;28;20073;-80
2023/02/16 07:23:40;;;;;;;179.85;54.78;;;1.60;99.90;;;1.88;100.00;101680.56;4957103;28;20432;-83
2023/02/16 07:26:06;;;;;;;183.93;56.67;;;;;;;3.07;100.00;101691.25;4956268;28;20054;-82
2023/02/16 07:28:32;;;;;;;195.00;57.72;;;2.70;99.90;;;4.15;100.00;101683.19;4920259;28;20049;-80
2023/02/16 07:30:57;;;;;;;172.80;55.40;;;3.40;99.90;;;5.39;94.02;101691.84;4947697;28;20050;-81
2023/02/16 07:33:23;;;;;;;156.73;51.80;;;4.10;99.90;;;6.46;87.33;101700.22;4927782;28;20042;-80
2023/02/16 07:35:56;;;;;;;116.45;45.42;;;5.10;99.90;;;7.56;81.82;101697.56;4939739;28;20064;-82
2023/02/16 07:38:22;;;;;;;103.32;41.70;;;5.80;99.90;;;8.21;77.00;101701.53;4915984;28;20047;-80
2023/02/16 07:40:48;;;;;;;93.65;38.25;;;6.40;99.90;;;7.71;74.60;101685.94;4919675;28;20076;-80
2023/02/16 07:43:13;;;;;;;75.68;36.10;;;6.80;99.90;;;8.33;73.41;101684.66;4915039;28;20122;-79
2023/02/16 07:45:41;;;;;;;81.70;36.40;;;6.40;99.90;;;7.79;72.96;101693.63;4903692;28;20069;-81
2023/02/16 07:48:14;;;;;;;81.30;35.65;;;7.20;99.90;;;6.56;73.73;101685.25;4910154;28;20447;-82
2023/02/16 07:50:40;;;;;;;80.57;36.10;;;6.90;99.90;;;5.63;75.76;101682.88;4906336;28;20042;-81
2023/02/16 07:53:06;;;;;;;86.78;36.78;;;6.50;99.90;;;4.93;77.20;101684.44;4901760;28;20053;-81
2023/02/16 07:55:39;;;;;;;84.85;38.22;;;6.10;99.90;;;5.48;78.51;101704.81;4955093;28;20042;-81
2023/02/16 07:58:06;;;;;;;78.95;36.33;;;6.20;99.90;;;7.09;76.05;101711.50;4923186;28;20031;-80
2023/02/16 08:00:32;;;;;;;65.65;32.88;;;6.80;99.90;;;8.02;74.11;101717.63;4922412;28;20124;-80
2023/02/16 08:02:57;;;;;;;63.97;31.38;;;7.60;99.90;;;8.70;71.32;101720.59;4921068;28;20043;-82
2023/02/16 08:05:23;;;;;;;65.03;33.55;;;8.20;99.90;;;9.15;69.74;101710.75;4915828;28;20044;-80
2023/02/16 08:07:54;;;;;;;60.42;32.67;;;8.80;99.90;;;9.61;67.89;101706.94;4956379;28;20039;-82
2023/02/16 08:10:20;;;;;;;62.53;32.72;;;9.30;99.90;;;9.60;67.24;101710.47;4945505;28;20365;-81
2023/02/16 08:12:46;;;;;;;69.78;36.40;;;9.30;99.90;;;8.14;68.55;101682.44;4972188;28;20194;-80
2023/02/16 08:15:12;;;;;;;79.43;38.83;;;8.80;99.90;;;7.14;70.96;101689.56;4949526;28;20037;-81
2023/02/16 08:17:38;;;;;;;90.03;39.95;;;8.30;99.90;;;6.92;72.94;101689.03;4926191;28;20057;-81
2023/02/16 08:20:06;;;;;;;74.72;39.55;;;8.20;99.90;;;8.22;71.91;101703.25;4916893;28;20094;-81
2023/02/16 08:22:34;;;;;;;69.55;37.45;;;8.60;99.90;;;8.51;70.74;101709.66;4950744;28;20026;-81
2023/02/16 08:25:00;;;;;;;74.35;38.13;;;8.80;99.90;;;7.67;71.71;101699.97;4920910;28;20531;-81
2023/02/16 08:27:26;;;;;;;83.40;41.30;;;8.50;99.90;;;6.90;73.08;101696.06;4908930;28;20101;-81
2023/02/16 08:29:53;;;;;;;87.38;41.90;;;9.40;99.90;;;6.46;74.57;101683.66;4935089;28;20519;-80
2023/02/16 08:32:18;;;;;;;86.32;43.35;;;7.60;99.90;;;6.07;76.28;101672.81;4918443;28;20034;-81
2023/02/16 08:34:52;;;;;;;95.32;44.80;;;7.40;99.90;;;6.16;77.22;101681.44;4942337;28;20041;-79
2023/02/16 08:37:17;;;;;;;91.15;43.95;;;7.40;99.90;;;6.55;77.96;101697.47;4897316;28;20031;-80
2023/02/16 08:39:43;;;;;;;93.65;44.60;;;7.50;99.90;;;6.58;78.07;101694.78;4946017;28;20541;-80
2023/02/16 08:42:12;;;;;;;86.30;45.72;;;7.50;99.90;;;6.27;78.86;101693.50;4924064;28;20054;-81
2023/02/16 08:44:42;;;;;;;98.35;48.55;;;7.40;99.90;;;6.09;79.41;101690.25;4897560;28;20038;-81
2023/02/16 08:47:09;;;;;;;93.50;46.45;;;7.20;99.90;;;5.80;80.36;101687.06;4912493;28;20035;-81
2023/02/16 08:49:35;;;;;;;104.80;49.97;;;7.00;99.90;;;5.62;81.44;101689.00;4916934;28;20065;-80
2023/02/16 08:52:02;;;;;;;100.72;49.53;;;7.00;99.90;;;5.79;82.23;101688.84;4919928;28;20065;-80
2023/02/16 08:54:32;;;;;;;98.32;50.53;;;7.00;99.90;;;5.99;82.81;101688.63;4888110;28;20045;-81
2023/02/16 08:56:58;;;;;;;101.03;50.92;;;7.20;99.90;;;6.46;82.31;101699.38;4930317;28;20145;-81
2023/02/16 08:59:25;;;;;;;100.28;51.83;;;7.50;99.90;;;6.77;81.86;101694.53;4907241;28;20078;-79
2023/02/16 09:01:51;;;;;;;95.93;49.78;;;7.90;99.90;;;7.10;81.54;101700.97;4955103;28;20034;-82
2023/02/16 09:04:24;;;;;;;90.60;49.85;;;8.20;99.90;;;7.25;80.29;101694.59;4957062;28;20546;-81
2023/02/16 09:06:52;;;;;;;98.38;50.53;;;8.40;99.90;;;7.44;80.17;101710.88;4941983;28;20471;-82
2023/02/16 09:09:18;;;;;;;91.82;49.38;;;8.60;99.90;;;7.67;79.87;101707.84;4942756;28;20038;-81
2023/02/16 09:11:45;;;;;;;97.25;51.30;;;8.80;99.90;;;7.85;79.61;101719.72;4928032;28;20862;-80
2023/02/16 09:14:11;;;;;;;91.13;49.03;;;8.90;99.90;;;7.83;79.49;101721.50;4953596;28;20102;-82
2023/02/16 09:16:47;;;;;;;82.47;47.10;;;9.00;99.90;;;7.86;79.20;101716.22;4933042;28;20038;-81
2023/02/16 09:19:26;;;;;;;81.68;43.90;;;9.10;99.90;;;8.02;79.17;101725.50;4955031;28;20049;-81
2023/02/16 09:21:55;;;;;;;86.60;45.63;;;9.20;99.90;;;8.18;78.52;101733.91;4950170;28;20510;-82
2023/02/16 09:24:25;;;;;;;78.90;44.50;;;9.20;99.90;;;8.10;78.23;101729.72;4946712;28;20038;-81
2023/02/16 09:26:51;;;;;;;80.13;45.35;;;9.20;99.90;;;8.01;78.46;101730.78;4921543;28;20181;-81
2023/02/16 09:29:17;;;;;;;79.07;45.38;;;9.10;99.90;;;8.09;78.77;101734.13;4955090;28;20034;-82
2023/02/16 09:31:46;;;;;;;73.72;42.80;;;9.20;99.90;;;8.27;78.03;101721.50;4982290;28;20061;-80
2023/02/16 09:34:20;;;;;;;72.10;43.38;;;9.20;99.90;;;8.40;78.19;101721.25;4975976;28;20050;-82
2023/02/16 09:36:46;;;;;;;83.53;44.25;;;9.30;99.90;;;8.51;77.60;101725.38;4934917;28;20168;-81
2023/02/16 09:39:13;;;;;;;69.15;41.15;;;9.30;99.90;;;8.58;77.73;101733.13;4939253;28;20050;-80
2023/02/16 09:42:35;;;;;;;74.00;41.13;;;9.30;99.90;;;8.47;77.61;101729.00;4965306;28;20065;-82
2023/02/16 09:45:27;;;;;;;68.07;40.40;;;9.30;99.90;;;8.29;78.15;101732.84;4963814;28;20032;-81
2023/02/16 09:47:58;;;;;;;70.15;40.33;;;9.20;99.90;;;8.12;78.88;101727.94;4969798;28;20042;-81
2023/02/16 09:50:38;;;;;;;61.17;36.10;;;9.20;99.90;;;8.02;79.53;101720.25;4965963;28;20066;-81
2023/02/16 09:53:20;;;;;;;66.80;38.97;;;9.10;99.90;;;7.76;80.15;101712.91;4959671;28;20037;-81
2023/02/16 09:56:12;;;;;;;60.35;38.20;;;9.10;99.90;;;7.73;80.82;101704.22;4976956;28;20038;-81
2023/02/16 09:58:55;;;;;;;68.25;40.05;;;9.00;99.90;;;7.50;80.64;101709.91;4954059;28;20046;-81
2023/02/16 10:02:33;;;;;;;67.30;40.30;;;8.90;99.90;;;7.44;81.46;101707.41;4969987;28;20054;-83
2023/02/16 10:05:19;;;;;;;67.47;39.95;;;8.90;99.90;;;7.47;81.40;101708.19;4915914;28;20046;-83
2023/02/16 10:07:45;;;;;;;70.23;39.17;;;8.80;99.90;;;7.51;82.31;101711.63;4962803;28;20521;-81
2023/02/16 10:10:22;;;;;;;64.22;38.80;;;8.90;99.90;;;7.53;82.67;101701.97;4927247;28;20539;-83
2023/02/16 10:13:14;;;;;;;70.38;40.30;;;8.80;99.90;;;7.50;82.54;101697.66;4948807;28;20111;-81
2023/02/16 10:15:43;;;;;;;67.88;39.17;;;8.80;99.90;;;7.56;82.24;101707.19;4977455;28;20047;-82
2023/02/16 10:18:40;;;;;;;65.07;38.90;;;8.80;99.90;;;7.64;82.12;101702.63;4940986;28;20042;-82
2023/02/16 10:21:21;;;;;;;68.88;39.80;;;8.90;99.90;;;7.71;81.87;101701.66;4980947;28;20097;-81
2023/02/16 10:24:00;;;;;;;70.88;39.28;;;8.90;99.90;;;7.66;81.63;101697.38;4952691;28;20495;-82
2023/02/16 10:26:43;;;;;;;70.90;40.53;;;8.90;99.90;;;7.69;81.19;101697.31;4940018;28;20038;-81
2023/02/16 10:29:19;;;;;;;71.78;41.15;;;8.90;99.90;;;7.73;81.34;101699.88;4938182;28;20508;-82
2023/02/16 10:32:28;;;;;;;69.38;41.85;;;9.00;99.90;;;7.77;81.33;101704.13;4972803;28;20056;-81
2023/02/16 10:35:14;;;;;;;69.00;39.58;;;9.00;99.90;;;7.84;81.07;101697.03;4952109;28;20072;-81
2023/02/16 10:38:27;;;;;;;71.47;42.05;;;;;;;7.93;80.75;101696.84;4936803;28;20130;-82
2023/02/16 10:41:36;;;;;;;70.00;41.72;;;9.20;99.90;;;8.07;80.72;101695.69;4956768;28;20109;-81
2023/02/16 10:44:28;;;;;;;72.97;41.78;;;9.30;99.90;;;8.08;80.47;101687.81;4973820;28;20042;-82
2023/02/16 10:47:04;;;;;;;73.05;42.78;;;9.30;99.90;;;8.14;80.23;101692.94;4952314;28;20084;-80
2023/02/16 10:49:34;;;;;;;75.80;42.38;;;9.30;99.90;;;8.12;79.58;101696.44;4953342;28;20089;-82
2023/02/16 10:52:09;;;;;;;68.00;41.58;;;9.40;99.90;;;8.20;80.25;101705.88;4982823;28;20026;-82
2023/02/16 10:54:42;;;;;;;75.03;43.15;;;9.40;99.90;;;8.26;80.26;101699.66;4955682;28;20557;-81
2023/02/16 10:57:29;;;;;;;74.57;42.40;;;9.50;99.90;;;8.21;79.82;101697.13;4977079;28;20038;-81
2023/02/16 11:00:20;;;;;;;66.25;40.75;;;9.50;99.90;;;8.26;79.97;101698.81;4972164;28;20054;-80
2023/02/16 11:02:55;;;;;;;73.63;41.63;;;9.50;99.90;;;8.27;79.80;101696.16;4934011;28;20038;-81
2023/02/16 11:05:36;;;;;;;71.38;42.25;;;9.40;99.90;;;8.24;79.90;101693.59;4951629;28;20759;-81